Time;durP1;ratioP1;P1;durP2;ratioP2;P2;SDS_P1;SDS_P2;PMS_P1;PMS_P2;Temp;Humidity;BMP_temperature;BMP_pressure;BME280_temperature;BME280_humidity;BME280_pressure;Samples;Min_cycle;Max_cycle;Signal;HPM_P1;HPM_P2
2024/01/13 00:02:01;;;;;;;28.65;15.35;;;;;;;1.62;51.33;102481.88;5012835;28;20057;-79
2024/01/13 00:04:29;;;;;;;30.77;15.57;;;;;;;1.60;51.63;102471.09;5027806;28;20054;-75
2024/01/13 00:06:56;;;;;;;26.55;14.48;;;;;;;1.61;51.26;102472.00;5029535;28;20106;-77
2024/01/13 00:09:24;;;;;;;31.85;16.30;;;;;;;1.60;51.59;102465.72;5040156;28;20042;-79
2024/01/13 00:11:52;;;;;;;30.42;15.15;;;;;;;1.60;51.50;102465.72;5029979;28;20037;-77
2024/01/13 00:17:10;;;;;;;27.60;15.18;;;;;;;1.59;51.48;102463.94;5032821;28;20067;-76
2024/01/13 00:19:38;;;;;;;30.42;15.68;;;;;;;1.59;51.53;102457.69;5030372;28;20053;-76
2024/01/13 00:22:06;;;;;;;29.98;15.50;;;;;;;1.59;51.56;102452.28;5041825;28;20462;-76
2024/01/13 00:24:34;;;;;;;25.92;15.40;;;;;;;1.59;51.64;102453.13;5034692;28;20041;-76
2024/01/13 00:27:02;;;;;;;31.00;16.35;;;;;;;1.59;51.70;102453.13;5033979;28;20044;-76
2024/01/13 00:29:30;;;;;;;27.80;15.32;;;;;;;1.60;51.58;102451.31;5018548;28;20052;-76
2024/01/13 00:31:58;;;;;;;31.20;15.57;;;;;;;1.59;51.60;102452.28;5041595;28;20116;-76
2024/01/13 00:34:28;;;;;;;31.05;15.13;;;;;;;1.60;51.59;102446.81;5039831;28;20144;-75
2024/01/13 00:36:56;;;;;;;31.35;15.98;;;;;;;1.59;51.58;102449.59;5033810;28;20052;-76
2024/01/13 00:39:23;;;;;;;30.17;15.40;;;;;;;1.60;51.55;102444.13;5037640;28;20057;-76
2024/01/13 00:41:51;;;;;;;29.10;15.10;;;;;;;1.60;51.58;102435.13;5013259;28;20041;-76
2024/01/13 00:44:19;;;;;;;32.42;15.70;;;;;;;1.60;51.53;102435.13;5036253;28;20084;-75
2024/01/13 00:46:47;;;;;;;27.00;14.75;;;;;;;1.59;51.54;102428.84;5039477;28;20080;-75
2024/01/13 00:49:15;;;;;;;26.00;13.88;;;;;;;1.60;51.47;102425.22;5038927;28;20053;-76
2024/01/13 00:51:45;;;;;;;29.00;14.93;;;;;;;1.61;51.59;102423.41;5032136;28;20500;-76
2024/01/13 00:54:13;;;;;;;28.70;15.60;;;;;;;1.60;51.58;102421.66;5032700;28;20048;-75
2024/01/13 00:56:41;;;;;;;30.30;16.02;;;;;;;1.60;51.53;102421.66;5029581;28;20045;-76
2024/01/13 00:59:09;;;;;;;29.00;14.98;;;;;;;1.59;51.62;102418.06;5035323;28;20041;-76
2024/01/13 01:01:37;;;;;;;29.90;14.82;;;;;;;1.59;51.61;102409.09;5010489;28;20133;-76
2024/01/13 01:04:05;;;;;;;31.38;15.80;;;;;;;1.59;51.48;102401.00;5013608;28;20098;-74
2024/01/13 01:06:33;;;;;;;30.98;16.13;;;;;;;1.60;51.62;102400.06;5020433;28;20045;-76
2024/01/13 01:09:02;;;;;;;32.47;16.35;;;;;;;1.59;51.55;102406.41;5012629;28;20109;-76
2024/01/13 01:11:30;;;;;;;29.65;15.25;;;;;;;1.58;51.50;102400.13;5028483;28;20045;-76
2024/01/13 01:13:59;;;;;;;32.03;15.75;;;;;;;1.58;51.67;102401.94;5014195;28;20157;-76
2024/01/13 01:16:27;;;;;;;29.23;15.23;;;;;;;1.57;51.65;102397.47;5039257;28;20041;-76
2024/01/13 01:18:55;;;;;;;29.33;15.05;;;;;;;1.57;51.48;102402.84;5040704;28;20068;-76
2024/01/13 01:21:23;;;;;;;29.98;16.25;;;;;;;1.58;51.58;102407.31;5028132;28;20133;-76
2024/01/13 01:23:51;;;;;;;31.10;15.45;;;;;;;1.58;51.63;102405.53;5034504;28;20104;-76
2024/01/13 01:26:21;;;;;;;32.38;15.43;;;;;;;1.58;51.54;102394.72;5033825;28;20540;-76
2024/01/13 01:28:48;;;;;;;29.55;15.88;;;;;;;1.56;51.62;102391.19;5041250;28;20037;-76
2024/01/13 01:31:16;;;;;;;30.65;15.50;;;;;;;1.58;51.65;102388.44;5036487;28;20064;-75
2024/01/13 01:33:44;;;;;;;27.20;14.60;;;;;;;1.57;51.56;102386.66;5047177;28;20423;-75
2024/01/13 01:36:12;;;;;;;28.80;15.15;;;;;;;1.58;51.84;102391.13;5039598;28;20072;-76
2024/01/13 01:38:40;;;;;;;27.45;13.90;;;;;;;1.58;51.69;102383.03;5038433;28;20479;-76
2024/01/13 01:41:12;;;;;;;30.75;14.82;;;;;;;1.58;51.62;102386.63;5049676;28;20512;-76
2024/01/13 01:43:42;;;;;;;28.67;14.73;;;;;;;1.59;51.75;102388.38;5039900;28;20072;-76
2024/01/13 01:46:12;;;;;;;28.60;15.15;;;;;;;1.60;51.83;102386.56;5011191;28;20049;-76
2024/01/13 01:48:42;;;;;;;27.33;15.13;;;;;;;1.59;51.70;102384.81;5022633;28;20109;-76
2024/01/13 01:51:14;;;;;;;29.13;14.67;;;;;;;1.58;51.61;102377.66;5014583;28;20042;-75
2024/01/13 01:53:44;;;;;;;27.83;14.68;;;;;;;1.60;51.43;102378.47;5041719;28;20041;-76
2024/01/13 01:56:14;;;;;;;26.13;14.68;;;;;;;1.61;51.69;102374.84;5037158;28;20045;-77
2024/01/13 01:58:45;;;;;;;28.52;14.75;;;;;;;1.61;51.99;102380.25;5042273;28;20034;-77
2024/01/13 02:01:15;;;;;;;28.73;14.40;;;;;;;1.60;51.79;102386.56;5037300;28;20056;-77
2024/01/13 02:03:43;;;;;;;26.80;14.57;;;;;;;1.60;51.79;102381.16;5039283;28;20579;-76
2024/01/13 02:06:11;;;;;;;26.58;14.25;;;;;;;1.60;51.67;102373.97;5033110;28;20047;-77
2024/01/13 02:08:40;;;;;;;26.23;13.57;;;;;;;1.60;51.67;102376.66;5013387;28;20522;-76
2024/01/13 02:11:11;;;;;;;26.48;14.50;;;;;;;1.59;51.62;102380.28;5022469;28;20392;-74
2024/01/13 02:13:44;;;;;;;26.67;13.52;;;;;;;1.60;51.75;102373.97;5052771;28;20057;-76
2024/01/13 02:16:12;;;;;;;26.25;12.73;;;;;;;1.60;51.67;102373.06;5032392;28;20103;-74
2024/01/13 02:18:40;;;;;;;24.15;13.38;;;;;;;1.60;51.56;102364.97;5036753;28;20560;-76
2024/01/13 02:21:11;;;;;;;27.08;14.32;;;;;;;1.60;51.72;102359.59;5018603;28;20045;-76
2024/01/13 02:23:43;;;;;;;23.80;13.30;;;;;;;1.60;51.91;102360.47;5021551;28;20076;-76
2024/01/13 02:26:11;;;;;;;29.20;13.77;;;;;;;1.60;51.59;102363.16;5016980;28;20053;-76
2024/01/13 02:28:40;;;;;;;27.30;14.07;;;;;;;1.61;51.74;102355.97;5038993;28;20045;-76
2024/01/13 02:31:15;;;;;;;27.80;14.20;;;;;;;1.61;51.59;102358.66;5015745;28;20072;-76
2024/01/13 02:33:49;;;;;;;27.10;14.38;;;;;;;1.60;51.72;102354.19;5045395;28;20041;-76
2024/01/13 02:36:17;;;;;;;26.90;14.63;;;;;;;1.61;51.66;102358.66;5037079;28;20041;-75
2024/01/13 02:38:47;;;;;;;27.25;14.40;;;;;;;1.62;51.76;102352.34;5036973;28;20140;-75
2024/01/13 02:41:15;;;;;;;26.80;14.15;;;;;;;1.61;51.78;102348.75;5016467;28;20041;-75
2024/01/13 02:43:43;;;;;;;30.85;14.88;;;;;;;1.62;51.68;102341.53;5032103;28;20048;-75
2024/01/13 02:46:11;;;;;;;24.90;13.43;;;;;;;1.62;51.57;102344.25;5031913;28;20152;-75
2024/01/13 02:48:40;;;;;;;26.50;14.23;;;;;;;1.63;51.65;102346.03;5036996;28;20050;-74
2024/01/13 02:51:13;;;;;;;29.45;14.98;;;;;;;1.62;51.90;102344.25;5034523;28;20060;-76
2024/01/13 02:53:43;;;;;;;29.75;13.77;;;;;;;1.62;51.65;102344.25;5030127;28;20046;-75
2024/01/13 02:56:13;;;;;;;26.30;13.65;;;;;;;1.62;51.57;102338.84;5031148;28;20042;-75
2024/01/13 02:58:42;;;;;;;27.45;14.05;;;;;;;1.62;51.81;102338.84;5025755;28;20064;-75
2024/01/13 03:01:14;;;;;;;26.75;13.88;;;;;;;1.60;51.77;102330.78;5025822;28;20538;-75
2024/01/13 03:03:49;;;;;;;26.77;13.88;;;;;;;1.60;51.66;102328.09;5012635;28;20057;-75
2024/01/13 03:06:18;;;;;;;27.63;13.55;;;;;;;1.61;51.92;102315.47;5027270;28;20119;-75
2024/01/13 03:08:46;;;;;;;28.52;14.18;;;;;;;1.61;51.77;102304.69;5028178;28;20584;-74
2024/01/13 03:11:16;;;;;;;28.95;13.40;;;;;;;1.62;51.82;102307.34;5030899;28;20103;-75
2024/01/13 03:13:44;;;;;;;26.23;13.85;;;;;;;1.62;51.62;102306.47;5035566;28;20415;-76
2024/01/13 03:16:13;;;;;;;26.27;13.55;;;;;;;1.61;51.76;102302.88;5028113;28;20053;-75
2024/01/13 03:18:41;;;;;;;24.92;13.25;;;;;;;1.62;51.75;102298.38;5025695;28;20038;-75
2024/01/13 03:21:12;;;;;;;27.38;13.75;;;;;;;1.62;51.81;102292.97;5027242;28;20059;-75
2024/01/13 03:23:42;;;;;;;23.42;12.70;;;;;;;1.61;51.74;102289.38;5023781;28;20038;-75
2024/01/13 03:26:12;;;;;;;24.70;13.10;;;;;;;1.62;51.76;102282.19;5007079;28;20434;-75
2024/01/13 03:28:41;;;;;;;26.50;12.73;;;;;;;1.62;51.88;102280.38;5010864;28;20046;-75
2024/01/13 03:31:12;;;;;;;27.05;13.63;;;;;;;1.62;51.85;102284.88;5032058;28;20045;-75
2024/01/13 03:33:44;;;;;;;22.95;12.88;;;;;;;1.61;51.85;102277.72;5011095;28;20092;-75
2024/01/13 03:36:13;;;;;;;24.85;12.93;;;;;;;1.63;51.77;102273.16;5005385;28;20045;-75
2024/01/13 03:38:41;;;;;;;23.80;13.32;;;;;;;1.63;51.81;102257.84;5008138;28;20108;-75
2024/01/13 03:41:11;;;;;;;23.38;12.70;;;;;;;1.64;51.94;102258.75;5009458;28;20589;-76
2024/01/13 03:43:41;;;;;;;24.75;13.07;;;;;;;1.64;51.71;102256.03;5028081;28;20045;-75
2024/01/13 03:46:09;;;;;;;25.10;13.52;;;;;;;1.65;51.86;102253.31;5026936;28;20124;-76
2024/01/13 03:48:37;;;;;;;23.83;12.63;;;;;;;1.64;51.82;102254.22;5026766;28;20053;-75
2024/01/13 03:51:05;;;;;;;24.00;12.27;;;;;;;1.65;51.82;102252.41;5006885;28;20111;-75
2024/01/13 03:53:34;;;;;;;25.02;12.75;;;;;;;1.66;51.88;102259.59;5056543;28;20412;-77
2024/01/13 03:56:04;;;;;;;24.88;13.50;;;;;;;1.66;51.81;102255.09;5012823;28;20458;-75
2024/01/13 03:58:33;;;;;;;24.85;13.57;;;;;;;1.66;51.80;102256.91;5025620;28;20111;-75
2024/01/13 04:01:04;;;;;;;22.70;12.65;;;;;;;1.66;51.89;102255.09;5015926;28;20128;-75
2024/01/13 04:03:32;;;;;;;25.67;13.10;;;;;;;1.66;51.79;102254.19;5045333;28;20045;-75
2024/01/13 04:06:02;;;;;;;23.95;13.02;;;;;;;1.67;51.73;102253.28;5028172;28;20451;-75
2024/01/13 04:08:33;;;;;;;24.02;13.00;;;;;;;1.65;51.80;102242.50;5024942;28;20472;-75
2024/01/13 04:11:03;;;;;;;21.92;11.50;;;;;;;1.65;51.96;102239.81;5021204;28;20049;-75
2024/01/13 04:13:31;;;;;;;25.15;12.52;;;;;;;1.65;51.79;102236.22;5014892;28;20041;-77
2024/01/13 04:15:59;;;;;;;22.70;11.95;;;;;;;1.65;51.78;102244.31;5037523;28;20084;-76
2024/01/13 04:18:28;;;;;;;25.40;12.68;;;;;;;1.67;51.85;102239.78;5044791;28;20137;-77
2024/01/13 04:20:56;;;;;;;22.95;12.70;;;;;;;1.66;51.76;102233.50;5028714;28;20041;-77
2024/01/13 04:23:43;;;;;;;19.42;11.50;;;;;;;1.66;51.89;102232.59;5004371;28;20044;-76
2024/01/13 04:26:11;;;;;;;28.35;13.38;;;;;;;1.67;51.77;102231.69;5040403;28;20270;-77
2024/01/13 04:28:39;;;;;;;21.63;11.80;;;;;;;1.67;51.80;102226.28;5042194;28;20052;-77
2024/01/13 04:31:08;;;;;;;21.55;12.05;;;;;;;1.67;51.76;102223.59;5040393;28;20053;-77
2024/01/13 04:33:37;;;;;;;22.73;12.20;;;;;;;1.68;51.95;102218.13;5043167;28;20416;-76
2024/01/13 04:36:06;;;;;;;21.02;10.82;;;;;;;1.67;51.97;102227.13;5041389;28;20493;-77
2024/01/13 04:38:34;;;;;;;21.60;12.30;;;;;;;1.68;51.91;102214.53;5046753;28;20407;-76
2024/01/13 04:41:02;;;;;;;21.88;11.10;;;;;;;1.68;51.79;102209.13;5028750;28;20072;-77
2024/01/13 04:43:30;;;;;;;21.27;11.48;;;;;;;1.68;51.84;102209.13;5050556;28;20041;-75
2024/01/13 04:45:58;;;;;;;22.23;11.25;;;;;;;1.68;51.84;102209.13;5045885;28;20416;-77
2024/01/13 04:48:26;;;;;;;21.40;11.10;;;;;;;1.68;51.84;102212.72;5040334;28;20049;-77
2024/01/13 04:50:56;;;;;;;19.25;11.00;;;;;;;1.69;51.90;102198.28;5019298;28;20041;-77
2024/01/13 04:53:24;;;;;;;20.23;11.13;;;;;;;1.68;51.83;102196.53;5041953;28;20121;-77
2024/01/13 04:55:52;;;;;;;22.05;11.60;;;;;;;1.69;51.87;102186.63;5035832;28;20103;-77
2024/01/13 04:58:20;;;;;;;19.65;10.60;;;;;;;1.69;51.77;102190.19;5046317;28;20049;-77
2024/01/13 05:00:48;;;;;;;19.75;10.45;;;;;;;1.70;51.59;102188.38;5038159;28;20075;-77
2024/01/13 05:03:16;;;;;;;16.52;9.57;;;;;;;1.69;52.01;102186.63;5043724;28;20041;-76
2024/01/13 05:05:44;;;;;;;20.63;10.48;;;;;;;1.69;51.91;102192.91;5021178;28;20041;-77
2024/01/13 05:08:13;;;;;;;18.10;10.40;;;;;;;1.71;51.95;102187.47;5027447;28;20052;-77
2024/01/13 05:10:41;;;;;;;20.42;10.23;;;;;;;1.70;51.87;102183.00;5042181;28;20077;-77
2024/01/13 05:13:08;;;;;;;16.65;9.32;;;;;;;1.69;51.79;102190.19;5049723;28;20080;-76
2024/01/13 05:15:36;;;;;;;20.20;9.88;;;;;;;1.69;51.82;102190.19;5021692;28;20105;-77
2024/01/13 05:18:04;;;;;;;17.88;9.90;;;;;;;1.71;51.69;102190.16;5052316;28;20044;-78
2024/01/13 05:20:32;;;;;;;17.25;9.55;;;;;;;1.70;51.63;102189.28;5031518;28;20063;-77
2024/01/13 05:23:00;;;;;;;16.98;9.70;;;;;;;1.70;51.81;102183.88;5026673;28;20064;-77
2024/01/13 05:25:29;;;;;;;18.60;9.48;;;;;;;1.71;51.96;102182.94;5024658;28;20482;-77
2024/01/13 05:27:57;;;;;;;19.45;9.57;;;;;;;1.71;51.93;102188.34;5040457;28;20051;-77
2024/01/13 05:30:26;;;;;;;16.88;9.20;;;;;;;1.71;51.82;102177.56;5045030;28;20072;-77
2024/01/13 05:32:54;;;;;;;15.85;9.25;;;;;;;1.70;51.87;102180.28;5033661;28;20073;-77
2024/01/13 05:35:22;;;;;;;14.95;8.77;;;;;;;1.72;51.96;102189.25;5018161;28;20133;-77
2024/01/13 05:37:50;;;;;;;15.38;8.68;;;;;;;1.71;51.83;102187.47;5039279;28;20098;-77
2024/01/13 05:40:19;;;;;;;16.33;8.45;;;;;;;1.72;51.74;102190.13;5022349;28;20049;-77
2024/01/13 05:42:49;;;;;;;14.32;8.32;;;;;;;1.73;51.88;102181.09;5044227;28;20052;-76
2024/01/13 05:45:16;;;;;;;16.58;8.00;;;;;;;1.71;51.61;102188.34;5046438;28;20065;-76
2024/01/13 05:47:45;;;;;;;18.50;8.90;;;;;;;1.72;51.81;102186.53;5047856;28;20625;-77
2024/01/13 05:50:13;;;;;;;15.05;8.18;;;;;;;1.71;51.80;102188.34;5030714;28;20569;-77
2024/01/13 05:52:41;;;;;;;16.40;9.00;;;;;;;1.72;51.63;102181.13;5019826;28;20041;-77
2024/01/13 05:55:09;;;;;;;15.60;8.88;;;;;;;1.72;51.83;102181.13;5020859;28;20092;-77
2024/01/13 05:57:37;;;;;;;13.48;7.88;;;;;;;1.72;51.91;102181.13;5044829;28;20463;-78
2024/01/13 06:00:09;;;;;;;16.60;8.60;;;;;;;1.74;51.74;102184.69;5038138;28;20038;-77
2024/01/13 06:02:37;;;;;;;15.93;8.70;;;;;;;1.71;51.81;102182.06;5024739;28;20048;-76
2024/01/13 06:05:08;;;;;;;13.65;8.05;;;;;;;1.72;51.66;102173.94;5034524;28;20061;-76
2024/01/13 06:07:37;;;;;;;15.88;9.55;;;;;;;1.72;51.73;102182.03;5045026;28;20054;-77
2024/01/13 06:10:11;;;;;;;15.63;9.15;;;;;;;1.73;51.95;102174.81;5037409;28;20057;-77
2024/01/13 06:12:39;;;;;;;15.50;9.77;;;;;;;1.73;51.73;102178.41;5044458;28;20374;-77
2024/01/13 06:15:09;;;;;;;16.38;9.80;;;;;;;1.73;51.94;102173.00;5048364;28;20476;-77
2024/01/13 06:17:37;;;;;;;16.15;9.38;;;;;;;1.73;51.67;102173.00;5035385;28;20505;-77
2024/01/13 06:20:08;;;;;;;18.15;9.52;;;;;;;1.75;51.85;102178.38;5025896;28;20132;-77
2024/01/13 06:22:36;;;;;;;16.05;10.02;;;;;;;1.73;51.76;102173.00;5057055;28;20057;-76
2024/01/13 06:25:05;;;;;;;16.20;9.82;;;;;;;1.74;51.74;102161.28;5050269;28;20531;-77
2024/01/13 06:27:33;;;;;;;16.58;9.38;;;;;;;1.74;51.93;102166.69;5048868;28;20056;-77
2024/01/13 06:30:00;;;;;;;17.60;9.75;;;;;;;1.75;51.71;102167.56;5026741;28;20152;-77
2024/01/13 06:32:30;;;;;;;17.80;10.48;;;;;;;1.76;51.82;102169.31;5044327;28;20045;-76
2024/01/13 06:34:58;;;;;;;20.13;11.25;;;;;;;1.75;51.78;102156.78;5032887;28;20033;-77
2024/01/13 06:37:28;;;;;;;17.15;10.48;;;;;;;1.75;51.72;102167.56;5043025;28;20520;-76
2024/01/13 06:39:55;;;;;;;18.10;10.25;;;;;;;1.75;51.78;102160.31;5055334;28;20422;-75
2024/01/13 06:42:23;;;;;;;16.67;9.98;;;;;;;1.75;51.80;102160.31;5024819;28;20046;-77
2024/01/13 06:44:52;;;;;;;17.13;10.20;;;;;;;1.76;51.77;102158.50;5052000;28;20045;-78
2024/01/13 06:47:21;;;;;;;18.70;10.95;;;;;;;1.77;51.79;102152.19;5049771;28;20048;-78
2024/01/13 06:49:51;;;;;;;18.52;10.07;;;;;;;1.78;51.80;102143.16;5049020;28;20056;-77
2024/01/13 06:52:19;;;;;;;18.33;10.50;;;;;;;1.77;51.77;102144.97;5037187;28;20141;-77
2024/01/13 06:54:47;;;;;;;18.17;10.98;;;;;;;1.78;51.69;102146.75;5012051;28;20045;-78
2024/01/13 06:57:15;;;;;;;19.25;10.27;;;;;;;1.78;51.95;102137.75;5037689;28;20049;-78
2024/01/13 06:59:44;;;;;;;17.67;10.20;;;;;;;1.78;51.77;102125.16;5035955;28;20044;-77
2024/01/13 07:02:12;;;;;;;17.35;10.05;;;;;;;1.79;51.82;102118.81;5018490;28;20049;-77
2024/01/13 07:04:41;;;;;;;17.48;10.27;;;;;;;1.81;51.70;102113.38;5019409;28;20539;-78
2024/01/13 07:07:11;;;;;;;17.85;10.23;;;;;;;1.81;51.72;102099.91;5049970;28;20059;-78
2024/01/13 07:09:39;;;;;;;16.80;9.60;;;;;;;1.79;51.71;102093.66;5018309;28;20079;-78
2024/01/13 07:12:07;;;;;;;17.17;9.52;;;;;;;1.80;51.79;102084.63;5042731;28;20049;-76
2024/01/13 07:14:35;;;;;;;16.40;10.15;;;;;;;1.80;51.58;102084.63;5033511;28;20041;-78
2024/01/13 07:17:03;;;;;;;13.82;9.32;;;;;;;1.80;51.52;102090.91;5041134;28;20037;-77
2024/01/13 07:19:31;;;;;;;17.15;10.35;;;;;;;1.80;51.78;102093.59;5047419;28;20068;-77
2024/01/13 07:21:59;;;;;;;17.23;9.40;;;;;;;1.80;51.61;102093.59;5027053;28;20051;-78
2024/01/13 07:24:30;;;;;;;17.80;9.75;;;;;;;1.81;51.68;102094.50;5026380;28;20045;-78
2024/01/13 07:26:58;;;;;;;16.23;10.15;;;;;;;1.81;51.66;102097.19;5049500;28;20437;-77
2024/01/13 07:29:26;;;;;;;21.77;10.68;;;;;;;1.80;51.63;102098.13;5016226;28;20049;-76
2024/01/13 07:31:54;;;;;;;19.42;11.75;;;;;;;1.80;51.77;102092.72;5045601;28;20072;-78
2024/01/13 07:34:22;;;;;;;18.92;11.23;;;;;;;1.79;51.66;102090.94;5022157;28;20045;-77
2024/01/13 07:36:50;;;;;;;19.45;11.15;;;;;;;1.78;51.70;102092.75;5024965;28;20116;-77
2024/01/13 07:39:18;;;;;;;19.40;11.27;;;;;;;1.78;51.76;102092.75;5030137;28;20547;-77
2024/01/13 07:41:52;;;;;;;20.65;11.60;;;;;;;1.78;51.79;102094.56;5020904;28;20102;-78
2024/01/13 07:44:20;;;;;;;18.10;11.30;;;;;;;1.77;51.37;102093.69;5028834;28;20048;-78
2024/01/13 07:46:48;;;;;;;18.20;11.70;;;;;;;1.78;51.84;102095.47;5027957;28;20120;-77
2024/01/13 07:49:16;;;;;;;19.33;11.50;;;;;;;1.77;51.62;102066.69;5048326;28;20071;-77
2024/01/13 07:51:49;;;;;;;17.67;10.93;;;;;;;1.79;51.75;102063.97;5035984;28;20056;-78
2024/01/13 07:54:17;;;;;;;18.17;11.10;;;;;;;1.78;51.68;102054.97;5042428;28;20095;-78
2024/01/13 07:56:46;;;;;;;19.52;11.15;;;;;;;1.78;51.68;102041.47;5037835;28;20448;-77
2024/01/13 07:59:16;;;;;;;19.58;11.43;;;;;;;1.79;51.71;102039.66;5013450;28;20053;-78
2024/01/13 08:01:48;;;;;;;18.75;11.27;;;;;;;1.78;51.67;102049.56;5029617;28;20044;-79
2024/01/13 08:04:16;;;;;;;18.90;11.68;;;;;;;1.78;51.92;102044.19;5019486;28;20053;-79
2024/01/13 08:06:44;;;;;;;18.48;11.23;;;;;;;1.79;51.77;102050.47;5033829;28;20064;-79
2024/01/13 08:09:12;;;;;;;18.77;11.98;;;;;;;1.79;52.02;102037.84;5026247;28;20079;-78
2024/01/13 08:11:40;;;;;;;18.42;11.13;;;;;;;1.78;51.67;102028.00;5035815;28;20095;-78
2024/01/13 08:14:16;;;;;;;19.50;11.25;;;;;;;1.78;51.69;102025.28;5023718;28;20092;-78
2024/01/13 08:16:44;;;;;;;18.77;11.68;;;;;;;1.78;51.61;102028.00;5022269;28;20061;-78
2024/01/13 08:19:12;;;;;;;16.48;11.15;;;;;;;1.78;51.78;102017.19;5035575;28;20042;-78
2024/01/13 08:21:41;;;;;;;18.33;11.00;;;;;;;1.78;51.75;102014.50;5020006;28;20111;-77
2024/01/13 08:24:09;;;;;;;22.17;11.85;;;;;;;1.79;51.70;102012.69;5019457;28;20087;-78
2024/01/13 08:26:39;;;;;;;19.63;11.30;;;;;;;1.79;51.69;102020.78;5033649;28;20042;-78
2024/01/13 08:29:08;;;;;;;17.17;11.10;;;;;;;1.79;51.60;102010.88;5009348;28;20052;-78
2024/01/13 08:31:38;;;;;;;19.85;11.45;;;;;;;1.80;51.63;102004.53;5029436;28;20057;-77
2024/01/13 08:34:09;;;;;;;17.65;11.07;;;;;;;1.77;51.76;101999.22;5033630;28;20045;-78
2024/01/13 08:36:39;;;;;;;19.50;11.07;;;;;;;1.79;51.83;102012.69;5035981;28;20111;-78
2024/01/13 08:39:07;;;;;;;19.15;11.27;;;;;;;1.79;51.74;102005.47;5020299;28;20076;-79
2024/01/13 08:41:35;;;;;;;18.15;10.90;;;;;;;1.80;51.92;101992.84;5037075;28;20038;-78
2024/01/13 08:44:03;;;;;;;18.80;10.90;;;;;;;1.81;51.59;101994.63;5023003;28;20051;-77
2024/01/13 08:46:32;;;;;;;15.63;9.77;;;;;;;1.81;51.98;101973.91;5036328;28;20059;-78
2024/01/13 08:49:01;;;;;;;17.02;10.65;;;;;;;1.83;51.75;101987.38;5032556;28;20124;-78
2024/01/13 08:51:29;;;;;;;15.95;10.25;;;;;;;1.83;51.62;101988.25;5027571;28;20076;-78
2024/01/13 08:54:03;;;;;;;16.58;10.07;;;;;;;1.83;51.54;101987.38;5033815;28;20416;-77
2024/01/13 08:56:34;;;;;;;17.23;10.57;;;;;;;1.84;51.75;101991.81;5016407;28;20045;-78
2024/01/13 08:59:04;;;;;;;18.77;11.65;;;;;;;1.85;51.84;101985.47;5035427;28;20119;-78
2024/01/13 09:01:34;;;;;;;16.85;10.05;;;;;;;1.86;51.81;101988.13;5010634;28;20049;-77
2024/01/13 09:04:08;;;;;;;16.27;9.95;;;;;;;1.86;51.79;101990.81;5016265;28;20410;-76
2024/01/13 09:06:36;;;;;;;17.23;10.50;;;;;;;1.86;51.86;101998.94;4998248;28;20050;-77
2024/01/13 09:09:05;;;;;;;15.98;10.27;;;;;;;1.88;51.96;101991.66;5016139;28;20053;-76
2024/01/13 09:11:34;;;;;;;17.08;10.48;;;;;;;1.88;51.75;101997.06;5015735;28;20042;-77
2024/01/13 09:14:11;;;;;;;15.43;9.40;;;;;;;1.90;51.90;101979.94;5015500;28;20129;-76
2024/01/13 09:16:41;;;;;;;16.02;9.98;;;;;;;1.90;52.06;101988.91;4997976;28;20351;-78
2024/01/13 09:19:11;;;;;;;14.88;9.50;;;;;;;1.92;51.90;101978.09;4997031;28;20041;-78
2024/01/13 09:21:41;;;;;;;15.75;9.65;;;;;;;1.93;51.87;101982.50;4997230;28;20125;-76
2024/01/13 09:24:14;;;;;;;16.97;9.47;;;;;;;1.92;51.72;101986.19;4997864;28;20060;-76
2024/01/13 09:26:43;;;;;;;14.73;8.65;;;;;;;1.94;51.90;101990.56;5028198;28;20045;-77
2024/01/13 09:29:15;;;;;;;15.50;9.50;;;;;;;1.93;51.81;101999.59;5017245;28;20053;-77
2024/01/13 09:31:44;;;;;;;14.40;9.30;;;;;;;1.95;51.86;102003.13;5017935;28;20231;-77
2024/01/13 09:34:14;;;;;;;14.95;9.07;;;;;;;1.97;51.80;102001.28;5034263;28;20053;-77
2024/01/13 09:36:44;;;;;;;15.02;9.20;;;;;;;1.96;51.96;101994.09;5017211;28;20052;-77
2024/01/13 09:39:19;;;;;;;14.63;8.63;;;;;;;1.97;51.80;101984.19;5035744;28;20092;-78
2024/01/13 09:41:48;;;;;;;13.40;8.30;;;;;;;1.98;51.81;101984.16;5029528;28;20033;-66
2024/01/13 09:44:21;;;;;;;12.57;7.75;;;;;;;2.01;52.31;101988.53;5038367;28;20116;-77
2024/01/13 09:46:51;;;;;;;13.52;8.10;;;;;;;2.00;51.74;101990.34;5014986;28;20056;-77
2024/01/13 09:49:23;;;;;;;12.95;7.93;;;;;;;2.01;51.90;101973.22;5032805;28;20050;-76
2024/01/13 09:51:53;;;;;;;14.02;8.98;;;;;;;2.02;51.79;101983.09;5014801;28;20069;-78
2024/01/13 09:54:23;;;;;;;14.00;8.50;;;;;;;2.03;51.87;101982.16;5032473;28;20099;-77
2024/01/13 09:56:54;;;;;;;12.18;7.90;;;;;;;2.03;51.76;101987.56;5032346;28;20049;-76
2024/01/13 09:59:25;;;;;;;13.93;8.30;;;;;;;2.04;51.80;101986.63;5032262;28;20161;-77
2024/01/13 10:01:53;;;;;;;11.55;7.30;;;;;;;2.04;51.83;101985.75;5032293;28;20077;-76
2024/01/13 10:04:22;;;;;;;13.95;8.05;;;;;;;2.06;51.75;101981.19;5031820;28;20061;-77
2024/01/13 10:06:51;;;;;;;13.10;8.00;;;;;;;2.05;51.81;101980.31;5014048;28;20463;-76
2024/01/13 10:09:19;;;;;;;11.25;7.63;;;;;;;2.06;51.71;101978.47;5016569;28;20570;-77
2024/01/13 10:12:04;;;;;;;12.25;7.30;;;;;;;2.05;51.83;101977.59;5021807;28;20038;-77
2024/01/13 10:14:35;;;;;;;10.65;6.95;;;;;;;2.07;51.78;101981.13;5016302;28;20072;-79
2024/01/13 10:17:06;;;;;;;11.77;7.38;;;;;;;2.07;51.94;101977.56;5014353;28;20460;-78
2024/01/13 10:19:38;;;;;;;11.43;6.93;;;;;;;2.10;51.71;101975.59;5015466;28;20423;-77
2024/01/13 10:22:07;;;;;;;10.85;6.60;;;;;;;2.08;51.66;101955.88;5031138;28;20284;-77
2024/01/13 10:24:35;;;;;;;11.05;6.72;;;;;;;2.10;51.69;101966.63;5033405;28;20049;-77
2024/01/13 10:27:05;;;;;;;10.43;6.25;;;;;;;2.09;51.86;101963.03;5033702;28;20049;-77
2024/01/13 10:29:35;;;;;;;9.95;6.38;;;;;;;2.10;51.63;101956.72;5032535;28;20381;-76
2024/01/13 10:32:04;;;;;;;12.73;7.75;;;;;;;2.09;51.67;101938.72;5015361;28;20140;-78
2024/01/13 10:34:32;;;;;;;13.55;7.80;;;;;;;2.10;51.70;101945.03;5014859;28;20049;-76
2024/01/13 10:37:11;;;;;;;10.73;6.88;;;;;;;2.13;52.03;101956.59;5011144;28;20038;-76
2024/01/13 10:39:40;;;;;;;9.90;6.70;;;;;;;2.10;51.83;101955.81;5012536;28;20052;-78
2024/01/13 10:42:09;;;;;;;9.48;6.45;;;;;;;2.10;51.63;101945.91;5017169;28;20052;-76
2024/01/13 10:44:44;;;;;;;10.20;6.00;;;;;;;2.13;51.80;101944.94;5049841;28;20120;-78
2024/01/13 10:47:15;;;;;;;9.43;5.80;;;;;;;2.11;51.57;101936.88;5052765;28;20040;-78
2024/01/13 10:49:48;;;;;;;8.43;5.78;;;;;;;2.11;51.85;101927.88;5053154;28;20539;-78
2024/01/13 10:52:26;;;;;;;9.40;5.95;;;;;;;2.10;51.85;101935.09;5050881;28;20346;-79
2024/01/13 10:54:56;;;;;;;7.28;4.82;;;;;;;2.11;51.96;101936.00;5033621;28;20068;-78
2024/01/13 10:57:25;;;;;;;8.52;5.68;;;;;;;2.11;51.71;101927.88;5033374;28;20053;-78
2024/01/13 10:59:54;;;;;;;7.82;4.93;;;;;;;2.12;51.87;101927.84;5034347;28;20041;-79
2024/01/13 11:02:23;;;;;;;7.80;5.13;;;;;;;2.11;51.87;101923.38;5034546;28;20041;-78
2024/01/13 11:04:53;;;;;;;8.65;5.25;;;;;;;2.13;51.85;101915.22;5053292;28;20033;-79
2024/01/13 11:07:22;;;;;;;9.18;5.45;;;;;;;2.13;51.93;101913.41;5052899;28;20052;-78
2024/01/13 11:09:53;;;;;;;7.90;4.82;;;;;;;2.13;51.93;101908.00;5052209;28;20072;-78
2024/01/13 11:12:29;;;;;;;8.02;5.47;;;;;;;2.14;52.08;101901.66;5034132;28;20136;-79
2024/01/13 11:15:05;;;;;;;8.65;5.60;;;;;;;2.14;52.02;101911.59;5052367;28;20033;-78
2024/01/13 11:17:34;;;;;;;7.82;5.20;;;;;;;2.13;51.92;101905.31;5052429;28;20524;-78
2024/01/13 11:20:05;;;;;;;8.93;5.20;;;;;;;2.13;51.83;101891.81;5051013;28;20052;-79
2024/01/13 11:22:37;;;;;;;9.75;5.82;;;;;;;2.14;52.10;101890.88;5051886;28;20496;-77
2024/01/13 11:25:23;;;;;;;9.82;5.63;;;;;;;2.14;52.59;101885.47;5039102;28;20088;-77
2024/01/13 11:27:57;;;;;;;8.65;5.90;;;;;;;2.14;52.16;101881.88;5031561;28;20065;-78
2024/01/13 11:30:46;;;;;;;9.02;5.55;;;;;;;2.11;52.58;101874.75;5029173;28;20629;-78
2024/01/13 11:33:16;;;;;;;9.95;5.97;;;;;;;2.11;52.02;101861.25;5023339;28;20049;-79
2024/01/13 11:35:46;;;;;;;10.45;5.93;;;;;;;2.12;52.03;101876.53;5032243;28;20045;-79